Kaiwo Maru — JMMU — position and weather

sailwx.info

Track history (hours):
 
Tides and Currents Weather Stations Pressure Air Temp Water Temp Dewpoint Dewpoint Depression Visibility Wind Speed Wind Dir Waves Ship Positions

Kaiwo Maru (Japan)

Built in 1989. Trains merchant marine cadets for Japan's National Institute for Sea Training.

Ship's website: http://www.kohkun.go.jp/en/ships/kaiwomaru.html

Last reported at 2019-Sep-09 23:08 UTC. Time now 2019-Sep-18 11:43 UTC.
Position N 35°39' E 139°46'.
Warning: this ship's position is 8 days out of date.

Length 110.1 m; beam 13.8 m; draft 6 m.

Type: Sailing vessel. MMSI: 431006000.

Date/timePositionNaut miles runAvg speedWind from/ knotsBaromVisibWave heightAir tempDewpointWater temp
2019-Sep-09 23:08N 35°39' E 139°46'0 2.0
2019-Sep-09 22:58N 35°39' E 139°46'4 7.3
2019-Sep-09 22:27N 35°35' E 139°48'3 7.6
2019-Sep-09 22:00N 35°33' E 139°51'3 5.6
2019-Sep-09 21:30N 35°32' E 139°54'2 4.8
2019-Sep-09 21:00N 35°30' E 139°53'3 5.1
2019-Sep-09 20:29N 35°28' E 139°51'2 5.1
2019-Sep-09 20:01N 35°27' E 139°49'3 6.4
2019-Sep-09 19:31N 35°24' E 139°46'5 9.7
2019-Sep-09 19:01N 35°20' E 139°44'5 9.1
2019-Sep-09 18:30N 35°16' E 139°47'5 9.6
2019-Sep-09 18:01N 35°11' E 139°47'610.0
2019-Sep-09 17:27N 35°05' E 139°46'510.4
2019-Sep-09 17:00N 35°02' E 139°41'  
2019-Sep-07 11:04N 35°07' E 139°43'510.5
2019-Sep-07 10:38N 35°11' E 139°45'210.3
2019-Sep-07 10:29N 35°13' E 139°46'5 9.5
2019-Sep-07 10:00N 35°17' E 139°45'5 9.6
2019-Sep-07 09:30N 35°21' E 139°42'4 9.0
2019-Sep-07 09:00N 35°25' E 139°45'5 9.8
2019-Sep-07 08:29N 35°28' E 139°50'7 9.8
2019-Sep-07 07:44N 35°32' E 139°58'3 8.1
2019-Sep-07 07:24N 35°33' E 140°01'0 0.3
2019-Sep-07 06:54N 35°33' E 140°01'0 0.0
2019-Sep-07 06:06N 35°33' E 140°01'0 0.0
2019-Sep-07 02:24N 35°33' E 140°01'0 0.0
2019-Sep-07 02:00N 35°33' E 140°01'0 0.0
2019-Sep-07 01:03N 35°33' E 140°01'0 0.0
2019-Sep-07 01:00N 35°33' E 140°01'0 0.0
2019-Sep-07 00:27N 35°33' E 140°01'0 0.0
2019-Sep-07 00:00N 35°33' E 140°01'0 0.0
2019-Sep-06 23:21N 35°33' E 140°01'0 0.0
2019-Sep-06 22:42N 35°33' E 140°01'0 0.0
2019-Sep-06 22:30N 35°33' E 140°01'0 0.0
2019-Sep-06 15:39N 35°33' E 140°01'0 0.0
2019-Sep-06 15:21N 35°33' E 140°01'0 0.0
2019-Sep-06 12:03N 35°33' E 140°01'0 0.0
2019-Sep-06 06:21N 35°33' E 140°01'0 0.1
2019-Sep-06 05:57N 35°33' E 140°01'0 0.0
2019-Sep-06 03:27N 35°33' E 140°01'0 0.0
2019-Sep-06 02:57N 35°33' E 140°01'0 0.0
2019-Sep-06 02:03N 35°33' E 140°01'0 0.1
2019-Sep-06 02:00N 35°33' E 140°01'0 0.0
2019-Sep-05 23:45N 35°33' E 140°01'0 0.0
2019-Sep-05 19:09N 35°33' E 140°01'0 0.0
2019-Sep-05 17:33N 35°33' E 140°01'0 0.0
2019-Sep-05 17:27N 35°33' E 140°01'0 0.0
2019-Sep-05 04:51N 35°33' E 140°01'3 4.4
2019-Sep-05 04:13N 35°31' E 139°58'2 9.8
2019-Sep-05 03:59N 35°30' E 139°56'5 9.2
2019-Sep-05 03:28N 35°28' E 139°51'4 9.2
2019-Sep-05 03:00N 35°25' E 139°47'5 9.1
2019-Sep-05 02:30N 35°21' E 139°45'8 8.1
2019-Sep-05 01:30N 35°13' E 139°47'  
Track history (hours):
 
Tides and Currents Weather Stations Pressure Air Temp Water Temp Dewpoint Dewpoint Depression Visibility Wind Speed Wind Dir Waves Ship Positions

Kaiwo Maru (Japan)

Built in 1989. Trains merchant marine cadets for Japan's National Institute for Sea Training.

Ship's website: http://www.kohkun.go.jp/en/ships/kaiwomaru.html

Last reported at 2019-Sep-09 23:08 UTC. Time now 2019-Sep-18 11:43 UTC.
Position N 35°39' E 139°46'.
Warning: this ship's position is 8 days out of date.

Length 110.1 m; beam 13.8 m; draft 6 m.

Type: Sailing vessel. MMSI: 431006000.

Date/timePositionNaut miles runAvg speedWind from/ knotsBaromVisibWave heightAir tempDewpointWater temp
2019-Sep-09 23:08N 35°39' E 139°46'0 2.0
2019-Sep-09 22:58N 35°39' E 139°46'4 7.3
2019-Sep-09 22:27N 35°35' E 139°48'3 7.6
2019-Sep-09 22:00N 35°33' E 139°51'3 5.6
2019-Sep-09 21:30N 35°32' E 139°54'2 4.8
2019-Sep-09 21:00N 35°30' E 139°53'3 5.1
2019-Sep-09 20:29N 35°28' E 139°51'2 5.1
2019-Sep-09 20:01N 35°27' E 139°49'3 6.4
2019-Sep-09 19:31N 35°24' E 139°46'5 9.7
2019-Sep-09 19:01N 35°20' E 139°44'5 9.1
2019-Sep-09 18:30N 35°16' E 139°47'5 9.6
2019-Sep-09 18:01N 35°11' E 139°47'610.0
2019-Sep-09 17:27N 35°05' E 139°46'510.4
2019-Sep-09 17:00N 35°02' E 139°41'  
2019-Sep-07 11:04N 35°07' E 139°43'510.5
2019-Sep-07 10:38N 35°11' E 139°45'210.3
2019-Sep-07 10:29N 35°13' E 139°46'5 9.5
2019-Sep-07 10:00N 35°17' E 139°45'5 9.6
2019-Sep-07 09:30N 35°21' E 139°42'4 9.0
2019-Sep-07 09:00N 35°25' E 139°45'5 9.8
2019-Sep-07 08:29N 35°28' E 139°50'7 9.8
2019-Sep-07 07:44N 35°32' E 139°58'3 8.1
2019-Sep-07 07:24N 35°33' E 140°01'0 0.3
2019-Sep-07 06:54N 35°33' E 140°01'0 0.0
2019-Sep-07 06:06N 35°33' E 140°01'0 0.0
2019-Sep-07 02:24N 35°33' E 140°01'0 0.0
2019-Sep-07 02:00N 35°33' E 140°01'0 0.0
2019-Sep-07 01:03N 35°33' E 140°01'0 0.0
2019-Sep-07 01:00N 35°33' E 140°01'0 0.0
2019-Sep-07 00:27N 35°33' E 140°01'0 0.0
2019-Sep-07 00:00N 35°33' E 140°01'0 0.0
2019-Sep-06 23:21N 35°33' E 140°01'0 0.0
2019-Sep-06 22:42N 35°33' E 140°01'0 0.0
2019-Sep-06 22:30N 35°33' E 140°01'0 0.0
2019-Sep-06 15:39N 35°33' E 140°01'0 0.0
2019-Sep-06 15:21N 35°33' E 140°01'0 0.0
2019-Sep-06 12:03N 35°33' E 140°01'0 0.0
2019-Sep-06 06:21N 35°33' E 140°01'0 0.1
2019-Sep-06 05:57N 35°33' E 140°01'0 0.0
2019-Sep-06 03:27N 35°33' E 140°01'0 0.0
2019-Sep-06 02:57N 35°33' E 140°01'0 0.0
2019-Sep-06 02:03N 35°33' E 140°01'0 0.1
2019-Sep-06 02:00N 35°33' E 140°01'0 0.0
2019-Sep-05 23:45N 35°33' E 140°01'0 0.0
2019-Sep-05 19:09N 35°33' E 140°01'0 0.0
2019-Sep-05 17:33N 35°33' E 140°01'0 0.0
2019-Sep-05 17:27N 35°33' E 140°01'0 0.0
2019-Sep-05 04:51N 35°33' E 140°01'3 4.4
2019-Sep-05 04:13N 35°31' E 139°58'2 9.8
2019-Sep-05 03:59N 35°30' E 139°56'5 9.2
2019-Sep-05 03:28N 35°28' E 139°51'4 9.2
2019-Sep-05 03:00N 35°25' E 139°47'5 9.1
2019-Sep-05 02:30N 35°21' E 139°45'8 8.1
2019-Sep-05 01:30N 35°13' E 139°47'  

Dump ship's entire track history